Flight Track Log - Related Links

Times and Time Zones

All times are in EDT time to prevent confusion due to time zone crossing. See the SKW4664 flight status page for this flight to view local times or setup timezone preferences in your user account.

Time Position Orientation Groundspeed Altitude Reporting Facility
EDT Latitude Longitude Course Direction KTS MPH feet Rate Location/Type
Wed 12:10:15 PM 43.5456 -96.6919 101° East 239 275 4,000  Level Minneapolis Center
Wed 12:11:17 PM 43.5944 -96.6172 48° Northeast 254 292 6,000 2,032 Climbing Minneapolis Center
Wed 12:12:00 PM 43.8523 -96.2348 53° Northeast  Level FlightAware Approximate
Wed 12:12:19 PM 43.6461 -96.5261 52° Northeast 278 320 8,200  Level Minneapolis Center
Wed 12:13:00 PM 43.9222 -96.1069 52° Northeast  Level FlightAware Approximate
Wed 12:13:21 PM 43.7017 -96.4342 50° Northeast 300 345 10,400  Level Minneapolis Center
Wed 12:14:00 PM 43.9935 -95.9804 52° Northeast  Level FlightAware Approximate
Wed 12:14:23 PM 43.7606 -96.3375 50° Northeast 321 369 12,100  Level Minneapolis Center
Wed 12:15:26 PM 43.8339 -96.2164 50° Northeast 339 390 14,100 1,680 Climbing Minneapolis Center
Wed 12:16:28 PM 43.8953 -96.1094 51° Northeast 353 406 15,600 1,403 Climbing Minneapolis Center
Wed 12:17:30 PM 43.9583 -96.0033 50° Northeast 361 415 17,000 677 Climbing Minneapolis Center
Wed 12:18:32 PM 44.0253 -95.8903 51° Northeast 381 438 17,000  Level Minneapolis Center
Wed 12:19:34 PM 44.1089 -95.7500 50° Northeast 397 457 17,000  Level Minneapolis Center
Wed 12:20:36 PM 44.1644 -95.6197 59° Northeast 397 457 17,000  Level Minneapolis Center
Wed 12:21:38 PM 44.2142 -95.4847 63° Northeast 396 456 17,000  Level Minneapolis Center
Wed 12:22:40 PM 44.2644 -95.3503 62° Northeast 394 453 17,000  Level Minneapolis Center
Wed 12:23:42 PM 44.3147 -95.2156 62° Northeast 394 453 17,000  Level Minneapolis Center
Wed 12:24:44 PM 44.3639 -95.0781 63° Northeast 396 456 17,000  Level Minneapolis Center
Wed 12:25:46 PM 44.4236 -94.9131 63° Northeast 395 455 17,000  Level Minneapolis Center
Wed 12:26:48 PM 44.4633 -94.8042 63° Northeast 394 453 17,000  Level Minneapolis Center
Wed 12:27:50 PM 44.5231 -94.6397 63° Northeast 397 457 17,000  Level Minneapolis Center
Wed 12:28:52 PM 44.5764 -94.4886 64° Northeast 398 458 17,000 -1,113 Level Minneapolis Center
Wed 12:29:54 PM 44.6264 -94.3500 63° Northeast 400 460 14,700 -2,468 Descending Minneapolis Center
Wed 12:30:56 PM 44.6750 -94.2100 64° Northeast 398 458 11,900 -1,790 Descending Minneapolis Center
Wed 12:31:58 PM 44.7131 -94.0686 69° East 388 447 11,000 -432 Descending Minneapolis Center
Wed 12:33:01 PM 44.7444 -93.9264 73° East 381 438 11,000  Level Minneapolis Center
Wed 12:34:03 PM 44.7775 -93.7803 72° East 391 450 11,000  Level Minneapolis Center
Wed 12:35:05 PM 44.8164 -93.6053 73° East 390 449 11,000 -435 Level Minneapolis Center
Wed 12:36:07 PM 44.8442 -93.4789 73° East 332 382 10,100 -968 Descending Minneapolis Center
Wed 12:37:09 PM 44.8658 -93.3644 75° East 299 344 9,000 -1,016 Descending Minneapolis Center
Wed 12:38:11 PM 44.8133 -93.3178 148° Southeast 240 276 8,000 -1,059 Descending Minneapolis Center
Wed 12:39:25 PM 44.7389 -93.3094 175° South 232 267 6,600 -1,147 Descending Minneapolis Center
Wed 12:40:27 PM 44.6867 -93.2583 145° Southeast 243 280 5,400 -1,161 Descending Minneapolis Center
Wed 12:41:29 PM 44.7125 -93.2086 54° Northeast 221 254 4,200 -1,161 Descending Minneapolis Center

Login

Don't have an account? Register now (free) for customized features, flight alerts, and more!